Time;durP1;ratioP1;P1;durP2;ratioP2;P2;SDS_P1;SDS_P2;PMS_P1;PMS_P2;Temp;Humidity;BMP_temperature;BMP_pressure;BME280_temperature;BME280_humidity;BME280_pressure;Samples;Min_cycle;Max_cycle;Signal;HPM_P1;HPM_P2
2021/05/07 00:01:28;;;;;;;10.73;2.80;;;16.90;99.90;;;;;;5048409;28;20441;-76
2021/05/07 00:03:54;;;;;;;20.70;2.75;;;16.90;99.90;;;;;;5033818;28;20069;-79
2021/05/07 00:06:19;;;;;;;18.02;3.88;;;16.90;99.90;;;;;;5015748;28;20457;-79
2021/05/07 00:11:18;;;;;;;7.97;2.60;;;16.90;99.90;;;;;;5146122;22;20056;-80
2021/05/07 00:13:47;;;;;;;9.98;2.50;;;16.90;99.90;;;;;;5053505;28;20021;-80
2021/05/07 00:16:13;;;;;;;10.73;2.60;;;16.90;99.90;;;;;;5053419;28;20060;-80
2021/05/07 00:18:39;;;;;;;19.50;3.20;;;16.90;99.90;;;;;;5053753;28;20033;-81
2021/05/07 00:31:11;;;;;;;13.02;3.05;;;16.80;99.90;;;;;;5122146;22;20184;-80
2021/05/07 00:33:37;;;;;;;16.13;3.15;;;16.90;99.90;;;;;;5012629;28;20497;-80
2021/05/07 00:36:02;;;;;;;12.50;2.85;;;16.90;99.90;;;;;;5009542;28;20592;-81
2021/05/07 00:38:28;;;;;;;9.40;3.45;;;16.90;99.90;;;;;;5014682;28;20036;-79
2021/05/07 00:51:20;;;;;;;18.65;3.85;;;16.90;99.90;;;;;;5147168;22;20115;-78
2021/05/07 00:53:47;;;;;;;9.52;2.67;;;16.90;99.90;;;;;;5050201;28;20163;-80
2021/05/07 00:56:12;;;;;;;15.65;2.70;;;16.90;99.90;;;;;;5021120;28;20508;-80
2021/05/07 00:58:38;;;;;;;11.25;2.58;;;16.90;99.90;;;;;;5052757;28;20029;-79
2021/05/07 01:23:00;;;;;;;14.23;2.88;;;16.90;99.90;;;;;;5050353;28;20041;-81
2021/05/07 01:25:31;;;;;;;11.30;3.10;;;16.90;99.90;;;;;;5141590;22;20490;-80
2021/05/07 01:52:12;;;;;;;16.10;3.83;;;16.70;99.90;;;;;;5145941;22;20136;-78
2021/05/07 01:54:37;;;;;;;9.90;3.00;;;16.60;99.90;;;;;;5038442;28;20116;-80
2021/05/07 01:57:03;;;;;;;14.60;3.83;;;16.60;99.90;;;;;;5036937;28;20033;-80
2021/05/07 01:59:29;;;;;;;17.20;3.40;;;16.60;99.90;;;;;;5049097;28;20033;-80
2021/05/07 02:12:00;;;;;;;10.00;3.63;;;16.60;99.90;;;;;;5128814;23;20207;-80
2021/05/07 02:14:26;;;;;;;17.95;4.55;;;16.60;99.90;;;;;;5046642;28;20108;-81
2021/05/07 02:16:52;;;;;;;19.73;4.50;;;16.60;99.90;;;;;;5051829;28;20435;-79
2021/05/07 02:19:17;;;;;;;15.88;4.47;;;16.50;99.90;;;;;;5051719;28;20033;-80
2021/05/07 02:52:02;;;;;;;16.05;3.63;;;16.70;99.90;;;;;;5138844;22;20083;-80
2021/05/07 02:54:31;;;;;;;15.82;3.30;;;16.60;99.90;;;;;;5058770;28;20067;-79
2021/05/07 02:56:58;;;;;;;16.23;4.13;;;16.60;99.90;;;;;;5042191;28;20029;-79
2021/05/07 02:59:23;;;;;;;12.93;3.17;;;16.60;99.90;;;;;;5061880;28;20366;-80
2021/05/07 03:01:50;;;;;;;9.68;3.60;;;16.60;99.90;;;;;;5047242;28;20040;-79
2021/05/07 03:04:18;;;;;;;12.32;3.72;;;16.60;99.90;;;;;;5025121;28;20034;-79
2021/05/07 03:06:44;;;;;;;12.57;3.90;;;16.70;99.90;;;;;;5041647;28;20033;-79
2021/05/07 03:09:10;;;;;;;13.07;3.17;;;16.70;99.90;;;;;;5022304;28;20555;-79
2021/05/07 03:11:36;;;;;;;10.60;3.22;;;16.70;99.90;;;;;;5040668;28;20041;-79
2021/05/07 03:14:01;;;;;;;13.13;3.50;;;16.70;99.90;;;;;;5040319;28;20036;-79
2021/05/07 03:16:27;;;;;;;16.13;3.45;;;16.80;99.90;;;;;;5100098;23;20164;-79
2021/05/07 03:18:53;;;;;;;6.80;2.95;;;16.80;99.90;;;;;;5032358;28;20075;-80
2021/05/07 03:22:15;;;;;;;8.25;2.95;;;16.80;99.90;;;;;;5127350;23;20046;-78
2021/05/07 03:31:24;;;;;;;14.77;3.65;;;16.70;99.90;;;;;;5144047;23;20523;-80
2021/05/07 03:33:50;;;;;;;17.02;3.88;;;16.70;99.90;;;;;;5048361;28;20037;-78
2021/05/07 03:36:17;;;;;;;14.43;3.63;;;16.70;99.90;;;;;;5041836;28;20098;-78
2021/05/07 03:38:42;;;;;;;13.13;3.55;;;16.70;99.90;;;;;;5055570;28;20027;-79
2021/05/07 03:43:43;;;;;;;15.10;3.15;;;16.70;99.90;;;;;;5064739;22;20053;-79
2021/05/07 03:46:09;;;;;;;20.45;5.30;;;16.70;99.90;;;;;;5040866;28;20033;-79
2021/05/07 03:48:35;;;;;;;13.10;3.33;;;16.70;99.90;;;;;;5023112;28;20052;-78
2021/05/07 03:56:58;;;;;;;11.55;3.45;;;16.70;99.90;;;;;;5141348;22;20037;-80
2021/05/07 03:59:23;;;;;;;14.90;3.63;;;16.70;99.90;;;;;;5152167;22;20057;-80
2021/05/07 04:22:40;;;;;;;32.00;3.75;;;16.80;99.90;;;;;;5147596;23;20211;-78
2021/05/07 04:25:08;;;;;;;14.88;3.72;;;16.80;99.90;;;;;;5053305;28;20464;-81
2021/05/07 04:27:34;;;;;;;25.70;3.50;;;16.80;99.90;;;;;;5053226;28;20056;-80
2021/05/07 04:30:00;;;;;;;14.48;3.33;;;16.80;99.90;;;;;;5016222;28;20489;-81
2021/05/07 04:52:38;;;;;;;18.20;3.58;;;16.90;99.90;;;;;;5135264;22;20053;-80
2021/05/07 04:55:04;;;;;;;13.63;3.13;;;16.90;99.90;;;;;;5044180;28;20025;-79
2021/05/07 04:57:29;;;;;;;18.40;3.75;;;17.00;99.90;;;;;;5052054;28;20083;-79
2021/05/07 04:59:55;;;;;;;22.23;4.03;;;17.00;99.90;;;;;;5025778;28;20053;-80
2021/05/07 05:02:55;;;;;;;15.30;3.03;;;17.00;99.90;;;;;;5142751;23;20206;-81
2021/05/07 05:05:21;;;;;;;17.08;3.15;;;17.00;99.90;;;;;;5045208;28;20040;-78
2021/05/07 05:07:52;;;;;;;10.60;3.50;;;17.00;99.90;;;;;;5039849;28;20123;-79
2021/05/07 05:10:19;;;;;;;14.93;3.28;;;17.00;99.90;;;;;;5034973;28;20036;-79
2021/05/07 05:12:45;;;;;;;10.88;2.80;;;17.00;99.90;;;;;;5171276;23;20065;-79
2021/05/07 05:15:11;;;;;;;18.90;3.65;;;17.00;99.90;;;;;;5018851;28;20042;-78
2021/05/07 05:17:37;;;;;;;14.57;3.53;;;17.00;99.90;;;;;;5020154;28;20108;-79
2021/05/07 05:20:04;;;;;;;17.10;3.25;;;17.00;99.90;;;;;;5032279;28;20167;-78
2021/05/07 05:30:17;;;;;;;16.83;3.63;;;17.00;99.90;;;;;;5028538;28;20669;-79
2021/05/07 05:32:43;;;;;;;12.30;3.42;;;17.00;99.90;;;;;;5007567;28;20049;-85
2021/05/07 05:35:10;;;;;;;12.00;3.33;;;17.00;99.90;;;;;;5010147;28;20060;-88
2021/05/07 05:37:36;;;;;;;15.20;3.60;;;17.00;99.90;;;;;;5010512;28;20029;-86
2021/05/07 05:40:02;;;;;;;14.57;4.32;;;17.00;99.90;;;;;;4982418;28;20397;-85
2021/05/07 05:45:53;;;;;;;13.77;4.10;;;17.00;99.90;;;;;;5502286;22;20045;-82
2021/05/07 05:50:55;;;;;;;11.63;3.10;;;17.00;99.90;;;;;;5815193;22;20068;-86
2021/05/07 05:53:22;;;;;;;23.13;4.43;;;17.00;99.90;;;;;;5012153;28;20053;-85
2021/05/07 05:55:47;;;;;;;29.75;3.92;;;17.00;99.90;;;;;;5013629;28;20029;-84
2021/05/07 05:58:13;;;;;;;18.65;3.83;;;16.90;99.90;;;;;;5029504;28;20044;-86
2021/05/07 06:00:42;;;;;;;14.98;3.80;;;17.00;99.90;;;;;;5123087;22;20036;-81
2021/05/07 06:03:08;;;;;;;21.13;3.83;;;17.00;99.90;;;;;;5021069;28;20129;-81
2021/05/07 06:05:34;;;;;;;13.50;3.40;;;17.00;99.90;;;;;;5027012;28;20124;-86
2021/05/07 06:07:59;;;;;;;15.75;3.58;;;17.00;99.90;;;;;;5032095;28;20064;-85
2021/05/07 06:18:11;;;;;;;16.70;4.25;;;17.00;99.90;;;;;;5302889;22;20042;-84
2021/05/07 06:20:37;;;;;;;22.30;3.35;;;17.10;99.90;;;;;;5111745;23;20034;-84
2021/05/07 06:23:03;;;;;;;18.05;4.13;;;17.10;99.90;;;;;;5042794;28;20077;-85
2021/05/07 06:25:29;;;;;;;22.58;4.28;;;17.00;99.90;;;;;;5048317;28;20037;-87
2021/05/07 06:27:55;;;;;;;16.58;3.50;;;17.00;99.90;;;;;;5054078;28;20025;-83
2021/05/07 06:30:21;;;;;;;10.32;3.90;;;17.00;99.90;;;;;;5032595;28;20025;-85
2021/05/07 06:32:47;;;;;;;16.27;3.40;;;16.90;99.90;;;;;;5139864;22;20049;-82
2021/05/07 06:35:13;;;;;;;19.90;3.72;;;16.90;99.90;;;;;;5031523;28;20037;-85
2021/05/07 06:37:40;;;;;;;18.67;3.47;;;17.00;99.90;;;;;;5139483;23;20513;-85
2021/05/07 06:40:07;;;;;;;14.35;3.85;;;17.00;99.90;;;;;;5054569;28;20096;-85
2021/05/07 06:42:59;;;;;;;15.93;3.70;;;17.00;99.90;;;;;;5147923;22;20148;-86
2021/05/07 06:45:35;;;;;;;14.50;3.55;;;17.00;99.90;;;;;;4994657;28;20138;-81
2021/05/07 06:48:01;;;;;;;28.13;4.60;;;17.00;99.90;;;;;;5098606;23;20054;-86
2021/05/07 06:53:02;;;;;;;15.15;3.63;;;17.00;99.90;;;;;;5617104;22;20440;-87
2021/05/07 06:55:31;;;;;;;12.38;3.70;;;17.00;99.90;;;;;;5009545;28;20018;-84
2021/05/07 06:57:57;;;;;;;16.42;4.38;;;17.00;99.90;;;;;;5005187;28;20093;-83
2021/05/07 07:00:22;;;;;;;16.17;3.33;;;17.10;99.90;;;;;;5011059;28;20407;-79
2021/05/07 07:02:48;;;;;;;9.68;3.55;;;17.10;99.90;;;;;;5000934;28;20034;-85
2021/05/07 07:05:14;;;;;;;12.32;4.43;;;17.20;99.90;;;;;;4996398;28;20408;-86
2021/05/07 07:07:39;;;;;;;20.98;3.72;;;17.20;99.90;;;;;;5000906;28;20062;-80
2021/05/07 07:10:06;;;;;;;22.33;3.45;;;17.20;99.90;;;;;;5000306;28;20068;-85
2021/05/07 07:12:32;;;;;;;11.80;3.15;;;17.20;99.90;;;;;;5003758;28;20034;-81
2021/05/07 07:14:58;;;;;;;14.27;3.03;;;17.20;99.90;;;;;;5003347;28;20516;-87
2021/05/07 07:17:23;;;;;;;20.85;4.07;;;17.20;99.90;;;;;;4999209;28;20082;-76
2021/05/07 07:19:49;;;;;;;19.67;3.78;;;17.20;99.90;;;;;;5001250;28;20540;-82
2021/05/07 07:22:16;;;;;;;21.75;5.45;;;17.20;99.90;;;;;;5003065;28;20034;-82
2021/05/07 07:24:42;;;;;;;18.70;5.13;;;17.20;99.90;;;;;;4996928;28;20026;-87
2021/05/07 07:27:08;;;;;;;18.25;4.50;;;17.20;99.90;;;;;;4995772;28;20038;-80
2021/05/07 07:29:34;;;;;;;21.75;4.03;;;17.20;99.90;;;;;;4995724;28;20029;-79
2021/05/07 07:31:59;;;;;;;23.52;4.63;;;17.30;99.90;;;;;;4994877;28;20042;-82
2021/05/07 07:34:26;;;;;;;13.65;4.60;;;17.30;99.90;;;;;;4995251;28;20117;-84
2021/05/07 07:36:52;;;;;;;21.48;4.53;;;17.30;99.90;;;;;;4993488;28;20089;-85
2021/05/07 07:39:21;;;;;;;11.10;3.45;;;17.30;99.90;;;;;;4994602;28;20038;-80
2021/05/07 07:41:48;;;;;;;15.30;4.55;;;17.30;99.90;;;;;;5000360;28;20117;-83
2021/05/07 07:44:14;;;;;;;13.52;3.80;;;17.30;99.90;;;;;;4990692;28;20380;-85
2021/05/07 07:46:41;;;;;;;8.55;4.22;;;17.30;99.90;;;;;;4982500;28;20049;-83
2021/05/07 07:49:07;;;;;;;9.57;3.60;;;17.30;99.90;;;;;;4999841;28;20036;-83
2021/05/07 07:51:34;;;;;;;13.23;3.42;;;17.30;99.90;;;;;;4994287;28;20125;-85
2021/05/07 07:54:00;;;;;;;11.00;2.83;;;17.30;99.90;;;;;;4976426;28;20046;-85
2021/05/07 07:56:26;;;;;;;18.27;3.78;;;17.30;99.90;;;;;;4998257;28;20104;-84
2021/05/07 07:58:52;;;;;;;15.23;3.05;;;17.30;99.90;;;;;;5001434;28;20034;-84
2021/05/07 08:01:18;;;;;;;10.05;3.03;;;17.40;99.90;;;;;;4997266;28;20030;-83
2021/05/07 08:03:43;;;;;;;13.73;3.38;;;17.40;99.90;;;;;;4998320;28;20101;-84
2021/05/07 08:06:10;;;;;;;13.85;3.95;;;17.40;99.90;;;;;;4991289;28;20419;-85
2021/05/07 08:08:35;;;;;;;13.75;2.97;;;17.50;99.90;;;;;;4994431;28;20578;-83
2021/05/07 08:11:02;;;;;;;16.63;3.95;;;17.50;99.90;;;;;;4993609;28;20114;-85
2021/05/07 08:13:27;;;;;;;20.38;3.92;;;17.50;99.90;;;;;;4976730;28;20040;-83
2021/05/07 08:15:53;;;;;;;10.85;3.30;;;17.50;99.90;;;;;;4994491;28;20105;-81
2021/05/07 08:18:19;;;;;;;20.98;4.07;;;17.40;99.90;;;;;;4994661;28;20033;-82
2021/05/07 08:20:44;;;;;;;14.45;3.63;;;17.50;99.90;;;;;;4994655;28;20486;-82
2021/05/07 08:23:10;;;;;;;21.38;4.55;;;17.50;99.90;;;;;;4994233;28;20030;-80
2021/05/07 08:25:36;;;;;;;23.52;4.30;;;17.50;99.90;;;;;;4994271;28;20109;-82
2021/05/07 08:28:01;;;;;;;19.75;3.67;;;17.40;99.90;;;;;;4994001;28;20030;-84
2021/05/07 08:30:27;;;;;;;27.48;4.13;;;17.50;99.90;;;;;;4994226;28;20147;-77
2021/05/07 08:32:53;;;;;;;17.40;3.85;;;17.50;99.90;;;;;;4994337;28;20507;-83
2021/05/07 08:35:19;;;;;;;17.23;3.67;;;17.60;99.90;;;;;;4994412;28;20383;-83
2021/05/07 08:37:44;;;;;;;19.13;3.88;;;17.60;99.90;;;;;;4994145;28;20057;-84
2021/05/07 08:40:15;;;;;;;17.35;3.90;;;17.60;99.90;;;;;;4992664;28;20031;-83
2021/05/07 08:42:42;;;;;;;28.43;4.73;;;17.50;99.90;;;;;;4992985;28;20034;-84
2021/05/07 08:45:09;;;;;;;15.13;3.92;;;17.60;99.90;;;;;;4993508;28;20040;-84
2021/05/07 08:47:35;;;;;;;12.75;4.05;;;17.60;99.90;;;;;;4993540;28;20035;-84
2021/05/07 08:50:06;;;;;;;17.15;4.15;;;17.60;99.90;;;;;;4994027;28;20483;-84
2021/05/07 08:52:34;;;;;;;13.70;2.95;;;17.50;99.90;;;;;;4993794;28;20054;-83
2021/05/07 08:55:00;;;;;;;17.73;3.67;;;17.60;99.90;;;;;;4993533;28;20478;-83
2021/05/07 08:57:25;;;;;;;16.33;3.78;;;17.60;99.90;;;;;;4994455;28;20046;-85
2021/05/07 08:59:51;;;;;;;15.18;4.05;;;17.60;99.90;;;;;;4994283;28;20093;-87
2021/05/07 09:02:28;;;;;;;22.55;3.40;;;17.50;99.90;;;;;;4993608;28;20045;-78
2021/05/07 09:04:55;;;;;;;17.15;3.58;;;17.60;99.90;;;;;;4990856;28;21752;-76
2021/05/07 09:07:22;;;;;;;19.02;3.65;;;17.60;99.90;;;;;;4996583;28;20030;-85
2021/05/07 09:09:50;;;;;;;23.15;3.72;;;17.60;99.90;;;;;;4979569;28;20473;-78
2021/05/07 09:12:26;;;;;;;19.23;3.85;;;17.60;99.90;;;;;;4995760;28;20470;-82
2021/05/07 09:14:52;;;;;;;15.48;3.92;;;17.50;99.90;;;;;;4992848;28;20049;-82
2021/05/07 09:17:22;;;;;;;16.10;3.97;;;17.50;99.90;;;;;;4995596;28;20038;-84
2021/05/07 09:19:49;;;;;;;24.35;4.10;;;17.60;99.90;;;;;;5003782;28;20028;-81
2021/05/07 09:22:27;;;;;;;19.00;4.00;;;17.60;99.90;;;;;;4996804;28;20026;-78
2021/05/07 09:25:23;;;;;;;14.57;3.97;;;17.60;99.90;;;;;;4995566;28;20104;-83
2021/05/07 09:27:49;;;;;;;11.50;3.40;;;17.50;99.90;;;;;;4987187;28;20073;-84
2021/05/07 09:30:20;;;;;;;13.65;3.83;;;17.50;99.90;;;;;;4996364;28;20065;-77
2021/05/07 09:32:49;;;;;;;21.52;3.95;;;17.40;99.90;;;;;;4996007;28;20049;-85
2021/05/07 09:35:16;;;;;;;21.73;4.45;;;17.40;99.90;;;;;;4989759;28;20046;-77
2021/05/07 09:37:44;;;;;;;9.05;3.78;;;17.40;99.90;;;;;;4999073;28;20030;-84
2021/05/07 09:40:20;;;;;;;16.40;5.03;;;17.40;99.90;;;;;;4996592;28;20033;-85
2021/05/07 09:42:47;;;;;;;15.55;4.10;;;17.40;99.90;;;;;;4997359;28;20042;-83
2021/05/07 09:45:26;;;;;;;18.13;3.58;;;17.40;99.90;;;;;;4990076;28;20423;-83
2021/05/07 09:47:53;;;;;;;7.82;3.45;;;17.40;99.90;;;;;;4995512;28;20041;-80
2021/05/07 09:50:30;;;;;;;12.00;3.80;;;17.40;99.90;;;;;;4996205;28;20069;-85
2021/05/07 09:53:08;;;;;;;19.15;4.82;;;17.40;99.90;;;;;;4996521;28;20046;-84
2021/05/07 09:55:34;;;;;;;10.00;4.35;;;17.40;99.90;;;;;;4991686;28;20065;-77
2021/05/07 09:58:01;;;;;;;27.88;4.15;;;17.40;99.90;;;;;;4991692;28;20066;-78
2021/05/07 10:00:27;;;;;;;14.18;4.35;;;17.40;99.90;;;;;;4991599;28;20089;-76
2021/05/07 10:02:53;;;;;;;19.60;4.15;;;17.40;99.90;;;;;;4992129;28;20391;-80
2021/05/07 10:05:19;;;;;;;19.63;4.30;;;17.40;99.90;;;;;;4994213;28;20023;-84
2021/05/07 10:07:44;;;;;;;15.57;4.10;;;17.40;99.90;;;;;;4974751;28;20038;-76
2021/05/07 10:10:11;;;;;;;10.90;3.58;;;17.50;99.90;;;;;;4991999;28;20033;-83
2021/05/07 10:12:41;;;;;;;13.93;3.90;;;17.50;99.90;;;;;;4994090;28;20078;-82
2021/05/07 10:15:07;;;;;;;14.02;4.18;;;17.50;99.90;;;;;;4990553;28;20034;-81
2021/05/07 10:17:32;;;;;;;9.52;3.75;;;17.50;99.90;;;;;;4991818;28;20522;-78
2021/05/07 10:19:58;;;;;;;24.13;4.07;;;17.50;99.90;;;;;;4974584;28;20148;-78
2021/05/07 10:22:41;;;;;;;12.10;3.55;;;17.50;99.90;;;;;;4976886;28;20380;-78
2021/05/07 10:25:19;;;;;;;17.88;5.22;;;17.50;99.90;;;;;;4991585;28;20408;-80
2021/05/07 10:27:47;;;;;;;16.25;4.40;;;17.50;99.90;;;;;;4995651;28;20124;-81
2021/05/07 10:30:27;;;;;;;20.27;4.70;;;17.50;99.90;;;;;;4978177;28;20398;-80
2021/05/07 10:33:24;;;;;;;16.15;4.43;;;17.50;99.90;;;;;;5001212;28;20041;-77
2021/05/07 10:35:57;;;;;;;16.55;3.67;;;17.40;99.90;;;;;;4993283;28;20026;-80
2021/05/07 10:38:23;;;;;;;16.13;4.20;;;17.40;99.90;;;;;;4995967;28;20030;-82
2021/05/07 10:41:10;;;;;;;20.08;3.80;;;17.50;99.90;;;;;;4995290;28;20031;-81
2021/05/07 10:43:44;;;;;;;17.85;4.10;;;17.50;99.90;;;;;;4995251;28;20478;-78
2021/05/07 10:46:24;;;;;;;16.55;3.67;;;17.50;99.90;;;;;;4995697;28;20069;-79
2021/05/07 10:48:54;;;;;;;12.30;4.00;;;17.50;99.90;;;;;;4995379;28;20437;-82
2021/05/07 10:51:22;;;;;;;16.35;4.05;;;17.50;99.90;;;;;;4980232;28;20089;-82
2021/05/07 10:53:49;;;;;;;20.67;3.72;;;17.50;99.90;;;;;;4997367;28;20042;-80
2021/05/07 10:56:22;;;;;;;10.70;3.40;;;17.50;99.90;;;;;;5000976;28;20022;-83
2021/05/07 10:58:52;;;;;;;20.50;3.78;;;17.60;99.90;;;;;;4977744;28;20038;-83
2021/05/07 11:01:18;;;;;;;17.13;3.33;;;17.60;99.90;;;;;;4980471;28;20467;-81
2021/05/07 11:03:45;;;;;;;12.10;3.42;;;17.60;99.90;;;;;;4977639;28;20034;-83
2021/05/07 11:06:11;;;;;;;10.95;3.30;;;17.60;99.90;;;;;;4995161;28;20018;-77
2021/05/07 11:08:36;;;;;;;9.30;3.42;;;17.70;99.90;;;;;;4977748;28;20031;-76
2021/05/07 11:11:02;;;;;;;15.40;4.32;;;17.80;99.90;;;;;;4995036;28;20525;-81
2021/05/07 11:13:28;;;;;;;12.57;4.57;;;17.90;99.90;;;;;;4997078;28;20030;-81
2021/05/07 11:15:58;;;;;;;12.10;3.80;;;18.10;99.90;;;;;;4994723;28;20065;-82
2021/05/07 11:18:32;;;;;;;16.48;4.15;;;18.10;99.90;;;;;;4994554;28;20038;-80
2021/05/07 11:21:10;;;;;;;15.63;4.18;;;18.10;99.90;;;;;;4997106;28;20091;-82
2021/05/07 11:23:36;;;;;;;14.55;3.85;;;18.10;99.90;;;;;;4994800;28;20084;-81
2021/05/07 11:26:06;;;;;;;13.07;3.70;;;18.10;99.90;;;;;;4980259;28;20117;-81
2021/05/07 11:28:43;;;;;;;10.15;3.13;;;18.10;99.90;;;;;;4990953;28;20394;-79
2021/05/07 11:31:10;;;;;;;11.65;3.45;;;18.10;99.90;;;;;;4994604;28;20014;-82
2021/05/07 11:33:36;;;;;;;9.80;3.00;;;18.10;99.90;;;;;;4977168;28;20505;-77
2021/05/07 11:36:12;;;;;;;15.40;3.40;;;18.10;99.90;;;;;;4997070;28;20030;-77
2021/05/07 11:38:40;;;;;;;12.13;4.15;;;18.10;99.90;;;;;;4992691;28;20525;-81
2021/05/07 11:41:15;;;;;;;16.48;3.75;;;18.10;99.90;;;;;;4999420;28;20138;-83
2021/05/07 11:43:41;;;;;;;14.00;4.13;;;18.20;99.90;;;;;;4995361;28;20042;-83
2021/05/07 11:46:08;;;;;;;27.58;4.60;;;18.20;99.90;;;;;;4993653;28;20501;-80
2021/05/07 11:48:35;;;;;;;18.08;4.22;;;18.30;99.90;;;;;;4996440;28;20058;-82
2021/05/07 11:51:08;;;;;;;17.48;3.90;;;18.40;99.90;;;;;;4993222;28;20027;-78
2021/05/07 11:53:35;;;;;;;14.77;4.68;;;18.50;99.90;;;;;;4993439;28;20056;-79
2021/05/07 11:56:01;;;;;;;19.52;4.35;;;18.60;99.90;;;;;;4993496;28;20018;-78
2021/05/07 11:58:36;;;;;;;19.48;4.85;;;18.70;99.90;;;;;;4996263;28;20031;-77
2021/05/07 12:01:12;;;;;;;21.85;3.78;;;18.80;99.90;;;;;;4995888;28;20029;-74
2021/05/07 12:03:39;;;;;;;14.05;3.28;;;18.90;99.90;;;;;;4991687;28;20026;-77
2021/05/07 12:06:24;;;;;;;12.27;3.72;;;19.00;99.90;;;;;;4993433;28;20030;-79
2021/05/07 12:08:52;;;;;;;11.77;3.33;;;19.10;99.90;;;;;;4996098;28;20023;-78
2021/05/07 12:11:18;;;;;;;11.10;3.33;;;19.10;99.90;;;;;;4992827;28;20118;-78
2021/05/07 12:13:45;;;;;;;18.90;3.83;;;19.10;99.90;;;;;;4991921;28;20450;-78
2021/05/07 12:16:12;;;;;;;19.38;3.50;;;19.30;99.90;;;;;;4994404;28;20033;-76
2021/05/07 12:18:50;;;;;;;11.63;3.20;;;19.30;99.90;;;;;;4995562;28;20034;-81
2021/05/07 12:21:16;;;;;;;23.27;4.22;;;19.40;99.90;;;;;;4992651;28;20615;-76
2021/05/07 12:23:47;;;;;;;13.90;3.72;;;19.50;99.90;;;;;;4992017;28;20022;-76
2021/05/07 12:26:14;;;;;;;10.60;2.60;;;19.60;99.90;;;;;;4993099;28;20061;-79
2021/05/07 12:28:40;;;;;;;21.95;3.60;;;19.70;99.90;;;;;;4992601;28;20074;-77
2021/05/07 12:31:08;;;;;;;11.15;2.92;;;19.80;99.90;;;;;;4991818;28;20073;-79
2021/05/07 12:33:36;;;;;;;11.55;3.47;;;19.80;99.90;;;;;;4992751;28;20034;-81
2021/05/07 12:36:13;;;;;;;12.00;2.92;;;19.90;99.90;;;;;;4991353;28;20498;-80
2021/05/07 12:38:39;;;;;;;17.70;3.20;;;19.90;99.90;;;;;;4989003;28;20085;-76
2021/05/07 12:41:20;;;;;;;18.88;3.40;;;20.00;99.90;;;;;;4991530;28;20027;-76
2021/05/07 12:43:50;;;;;;;8.85;2.95;;;20.00;99.90;;;;;;4992543;28;20387;-79
2021/05/07 12:46:17;;;;;;;10.63;3.08;;;20.10;99.90;;;;;;4974211;28;20142;-75
2021/05/07 12:48:50;;;;;;;17.55;3.15;;;20.20;99.90;;;;;;4991326;28;20034;-78
2021/05/07 12:51:17;;;;;;;14.73;3.50;;;20.30;99.90;;;;;;4990119;28;20046;-79
2021/05/07 12:53:44;;;;;;;20.40;3.90;;;20.30;99.90;;;;;;4992105;28;20070;-77
2021/05/07 12:56:13;;;;;;;13.48;3.25;;;20.40;99.90;;;;;;4991118;28;20038;-77
2021/05/07 12:58:39;;;;;;;12.27;3.55;;;20.40;99.90;;;;;;4994249;28;20494;-80
2021/05/07 13:01:07;;;;;;;16.77;3.33;;;20.30;99.90;;;;;;4992241;28;20066;-80
2021/05/07 13:03:32;;;;;;;13.40;2.90;;;20.40;99.90;;;;;;4992037;28;20034;-76
2021/05/07 13:05:58;;;;;;;13.48;3.03;;;20.40;99.90;;;;;;4974378;28;20841;-77
2021/05/07 13:08:24;;;;;;;14.10;2.85;;;20.50;99.90;;;;;;4992245;28;20042;-78
2021/05/07 13:10:50;;;;;;;17.88;2.85;;;20.60;99.90;;;;;;4992688;28;20030;-80
2021/05/07 13:13:16;;;;;;;17.27;3.63;;;20.60;99.90;;;;;;4994425;28;20043;-78
2021/05/07 13:15:43;;;;;;;14.48;2.85;;;20.70;99.90;;;;;;4992226;28;20034;-79
2021/05/07 13:18:09;;;;;;;10.73;2.55;;;20.70;99.90;;;;;;4974407;28;20046;-79
2021/05/07 13:20:36;;;;;;;12.02;2.83;;;20.80;99.90;;;;;;4991813;28;20038;-75
2021/05/07 13:23:02;;;;;;;13.88;2.75;;;20.90;99.90;;;;;;4992325;28;20116;-76
2021/05/07 13:25:28;;;;;;;10.40;2.20;;;21.10;99.90;;;;;;4991529;28;20039;-77
2021/05/07 13:27:54;;;;;;;21.50;3.10;;;21.30;99.90;;;;;;4991518;28;20081;-81
2021/05/07 13:30:21;;;;;;;7.72;2.53;;;21.60;99.90;;;;;;4992874;28;20026;-76
2021/05/07 13:32:47;;;;;;;13.65;2.33;;;21.80;99.90;;;;;;4991889;28;20050;-79
2021/05/07 13:35:15;;;;;;;17.33;2.85;;;22.00;99.90;;;;;;4991227;28;20089;-81
2021/05/07 13:37:43;;;;;;;8.35;2.42;;;22.20;99.90;;;;;;4973803;28;20045;-79
2021/05/07 13:40:10;;;;;;;12.05;2.85;;;22.40;99.90;;;;;;4989947;28;20026;-76
2021/05/07 13:42:36;;;;;;;8.05;2.70;;;22.50;99.90;;;;;;4993075;28;20049;-81
2021/05/07 13:45:06;;;;;;;16.05;2.80;;;22.60;99.90;;;;;;4976566;28;20168;-80
2021/05/07 13:47:32;;;;;;;13.20;2.92;;;22.70;99.90;;;;;;4993270;28;20121;-77
2021/05/07 13:49:58;;;;;;;17.73;2.92;;;22.80;99.90;;;;;;4992787;28;20023;-80
2021/05/07 13:52:23;;;;;;;11.05;3.22;;;22.90;99.90;;;;;;4990950;28;20066;-79
2021/05/07 13:54:49;;;;;;;13.27;3.45;;;22.80;99.90;;;;;;4993187;28;20193;-78
2021/05/07 13:57:15;;;;;;;12.90;2.92;;;22.60;99.90;;;;;;4973278;28;20049;-76
2021/05/07 13:59:41;;;;;;;10.63;2.47;;;22.50;99.90;;;;;;4990762;28;20464;-76
2021/05/07 14:02:07;;;;;;;12.32;3.33;;;22.40;99.90;;;;;;4989476;28;20053;-81
2021/05/07 14:04:32;;;;;;;10.95;2.50;;;22.30;99.90;;;;;;4992650;28;20041;-82
2021/05/07 14:06:58;;;;;;;18.42;3.70;;;22.20;99.90;;;;;;4994474;28;20059;-78
2021/05/07 14:09:24;;;;;;;12.00;2.78;;;22.30;99.90;;;;;;4992743;28;20364;-80
2021/05/07 14:11:54;;;;;;;10.50;2.80;;;22.50;99.90;;;;;;4993285;28;20049;-78
2021/05/07 14:14:20;;;;;;;9.57;2.50;;;22.60;99.90;;;;;;4991334;28;20031;-80
2021/05/07 14:16:46;;;;;;;28.23;3.10;;;22.50;99.90;;;;;;4992103;28;20037;-75
2021/05/07 14:19:13;;;;;;;9.43;2.83;;;22.50;99.90;;;;;;4991261;28;20069;-75
2021/05/07 14:21:39;;;;;;;11.88;3.13;;;22.50;99.90;;;;;;4990916;28;20031;-76
2021/05/07 14:24:08;;;;;;;14.23;3.67;;;22.50;99.90;;;;;;4990697;28;20037;-78
2021/05/07 14:26:34;;;;;;;8.60;2.78;;;22.50;99.90;;;;;;4990635;28;20113;-80
2021/05/07 14:29:00;;;;;;;10.75;3.75;;;22.40;99.90;;;;;;4996214;28;20105;-79
2021/05/07 14:31:26;;;;;;;18.10;4.07;;;22.40;99.90;;;;;;4992386;28;20038;-81
2021/05/07 14:33:51;;;;;;;15.55;3.22;;;22.30;99.90;;;;;;4993589;28;20101;-77
2021/05/07 14:36:17;;;;;;;14.05;3.20;;;22.30;99.90;;;;;;4992107;28;20030;-81
2021/05/07 14:38:43;;;;;;;17.60;3.45;;;22.20;99.90;;;;;;4992449;28;20038;-81
2021/05/07 14:41:09;;;;;;;18.50;3.10;;;22.10;99.90;;;;;;4978326;28;20054;-82
2021/05/07 14:43:36;;;;;;;12.68;3.42;;;22.00;99.90;;;;;;4997519;28;20108;-84
2021/05/07 14:46:02;;;;;;;14.07;3.60;;;21.90;99.90;;;;;;4995363;28;20053;-84
2021/05/07 14:48:28;;;;;;;11.00;4.35;;;21.80;99.90;;;;;;4991609;28;20061;-76
2021/05/07 14:50:53;;;;;;;15.18;4.13;;;21.70;99.90;;;;;;4990109;28;20526;-78
2021/05/07 14:53:20;;;;;;;16.05;4.68;;;21.50;99.90;;;;;;4977153;28;20129;-82
2021/05/07 14:55:46;;;;;;;19.05;4.47;;;21.40;99.90;;;;;;4992097;28;20022;-81
2021/05/07 14:58:12;;;;;;;24.30;5.68;;;21.30;99.90;;;;;;4992192;28;20041;-82
2021/05/07 15:00:38;;;;;;;20.60;4.78;;;21.20;99.90;;;;;;4992979;28;20034;-80
2021/05/07 15:03:04;;;;;;;14.27;3.60;;;21.10;99.90;;;;;;4999071;28;20402;-81
2021/05/07 15:05:30;;;;;;;24.92;4.40;;;20.90;99.90;;;;;;4993069;28;20100;-83
2021/05/07 15:07:57;;;;;;;17.20;7.75;;;20.80;99.90;;;;;;4995457;28;20030;-83
2021/05/07 15:10:23;;;;;;;10.05;4.50;;;20.70;99.90;;;;;;4992471;28;20026;-79
2021/05/07 15:12:49;;;;;;;10.20;3.72;;;20.60;99.90;;;;;;4995408;28;20125;-83
2021/05/07 15:15:17;;;;;;;14.52;3.55;;;20.50;99.90;;;;;;4993261;28;20223;-79
2021/05/07 15:17:44;;;;;;;15.27;2.67;;;20.40;99.90;;;;;;4994118;28;20058;-80
2021/05/07 15:20:11;;;;;;;21.58;3.55;;;20.30;99.90;;;;;;4994193;28;20023;-82
2021/05/07 15:22:38;;;;;;;7.70;2.70;;;20.30;99.90;;;;;;4994273;28;20034;-82
2021/05/07 15:25:04;;;;;;;68.55;5.85;;;20.20;99.90;;;;;;4993424;28;20041;-83
2021/05/07 15:27:31;;;;;;;38.58;5.43;;;19.80;99.90;;;;;;4996244;28;20448;-77
2021/05/07 15:30:00;;;;;;;11.55;2.95;;;19.10;99.90;;;;;;4994301;28;20030;-75
2021/05/07 15:32:25;;;;;;;28.77;5.78;;;18.70;99.90;;;;;;4995083;28;20407;-79
2021/05/07 15:34:52;;;;;;;15.38;4.00;;;18.50;99.90;;;;;;4993746;28;20033;-77
2021/05/07 15:37:18;;;;;;;12.60;3.25;;;17.60;99.90;;;;;;4993722;28;20036;-77
2021/05/07 15:39:44;;;;;;;13.45;2.67;;;16.20;99.90;;;;;;4992508;28;20085;-76
2021/05/07 15:42:10;;;;;;;8.43;2.63;;;15.40;99.90;;;;;;4991962;28;20042;-76
2021/05/07 15:44:38;;;;;;;5.72;1.80;;;15.00;99.90;;;;;;4995483;28;20542;-78
2021/05/07 15:47:05;;;;;;;7.97;2.05;;;14.60;99.90;;;;;;4995815;28;20073;-76
2021/05/07 15:49:32;;;;;;;3.90;2.47;;;14.50;99.90;;;;;;4994955;28;20031;-76
2021/05/07 15:51:58;;;;;;;11.27;2.75;;;14.50;99.90;;;;;;4993009;28;20045;-77